createdAt,value
2018-11-10T00:00:36.849Z,9.10
2018-11-10T00:03:06.383Z,9.00
2018-11-10T00:05:35.171Z,9.00
2018-11-10T00:08:03.858Z,9.10
2018-11-10T00:10:38.902Z,9.00
2018-11-10T00:13:07.583Z,9.00
2018-11-10T00:15:36.214Z,9.10
2018-11-10T00:18:05.343Z,9.20
2018-11-10T00:20:34.096Z,9.30
2018-11-10T00:23:02.876Z,9.20
2018-11-10T00:25:31.529Z,9.10
2018-11-10T00:28:00.262Z,8.90
2018-11-10T00:30:28.936Z,8.70
2018-11-10T00:32:57.705Z,8.70
2018-11-10T00:35:26.410Z,8.60
2018-11-10T00:37:55.122Z,8.60
2018-11-10T00:40:23.849Z,8.40
2018-11-10T00:42:52.576Z,8.50
2018-11-10T00:45:21.273Z,8.60
2018-11-10T00:47:49.964Z,8.60
2018-11-10T00:50:18.647Z,8.60
2018-11-10T00:52:47.371Z,8.60
2018-11-10T00:55:16.124Z,8.60
2018-11-10T00:57:44.816Z,8.60
2018-11-10T01:00:13.964Z,8.60
2018-11-10T01:02:43.948Z,8.50
2018-11-10T01:05:12.717Z,8.50
2018-11-10T01:07:41.705Z,8.60
2018-11-10T01:10:11.763Z,8.70
2018-11-10T01:12:40.620Z,8.70
2018-11-10T01:15:11.535Z,8.60
2018-11-10T01:17:40.502Z,8.70
2018-11-10T01:20:10.221Z,8.70
2018-11-10T01:22:39.069Z,8.60
2018-11-10T01:25:09.101Z,8.60
2018-11-10T01:27:37.966Z,8.70
2018-11-10T01:30:08.838Z,8.70
2018-11-10T01:32:37.548Z,8.80
2018-11-10T01:35:06.416Z,8.70
2018-11-10T01:37:35.155Z,8.70
2018-11-10T01:40:03.903Z,8.60
2018-11-10T01:42:32.587Z,8.70
2018-11-10T01:45:01.351Z,8.70
2018-11-10T01:47:30.057Z,8.60
2018-11-10T01:49:59.115Z,8.40
2018-11-10T01:52:27.802Z,8.50
2018-11-10T01:54:56.466Z,8.60
2018-11-10T01:57:25.138Z,8.60
2018-11-10T01:59:53.766Z,8.70
2018-11-10T02:02:22.528Z,8.60
2018-11-10T02:04:51.221Z,8.50
2018-11-10T02:07:19.944Z,8.60
2018-11-10T02:09:48.597Z,8.60
2018-11-10T02:12:17.325Z,8.70
2018-11-10T02:14:46.009Z,8.80
2018-11-10T02:17:14.704Z,8.70
2018-11-10T02:19:43.484Z,8.80
2018-11-10T02:22:12.304Z,8.60
2018-11-10T02:24:40.997Z,8.70
2018-11-10T02:27:13.967Z,8.70
2018-11-10T02:29:42.633Z,8.80
2018-11-10T02:32:11.357Z,8.60
2018-11-10T02:34:40.076Z,8.70
2018-11-10T02:37:08.774Z,8.70
2018-11-10T02:39:37.454Z,8.80
2018-11-10T02:42:06.247Z,8.80
2018-11-10T02:44:34.922Z,8.90
2018-11-10T02:47:03.680Z,8.90
2018-11-10T02:49:32.363Z,9.00
2018-11-10T02:52:01.204Z,9.00
2018-11-10T02:54:29.867Z,9.20
2018-11-10T02:56:58.568Z,9.10
2018-11-10T02:59:27.228Z,9.10
2018-11-10T03:01:55.931Z,9.20
2018-11-10T03:04:24.626Z,9.30
2018-11-10T03:06:53.344Z,9.20
2018-11-10T03:09:22.153Z,9.10
2018-11-10T03:11:50.851Z,9.00
2018-11-10T03:14:19.514Z,8.80
2018-11-10T03:16:48.221Z,8.90
2018-11-10T03:19:16.911Z,8.90
2018-11-10T03:21:45.596Z,8.90
2018-11-10T03:24:14.289Z,8.90
2018-11-10T03:26:42.973Z,8.90
2018-11-10T03:29:11.644Z,8.80
2018-11-10T03:31:40.439Z,9.00
2018-11-10T03:34:09.161Z,9.10
2018-11-10T03:36:37.835Z,9.20
2018-11-10T03:39:09.012Z,9.00
2018-11-10T03:41:37.688Z,9.00
2018-11-10T03:44:06.558Z,9.10
2018-11-10T03:46:35.231Z,9.10
2018-11-10T03:49:04.014Z,9.00
2018-11-10T03:51:32.729Z,9.10
2018-11-10T03:54:01.723Z,9.10
2018-11-10T03:56:30.429Z,9.10
2018-11-10T03:58:59.145Z,9.10
2018-11-10T04:01:27.857Z,9.00
2018-11-10T04:03:56.571Z,8.90
2018-11-10T04:06:25.276Z,8.90
2018-11-10T04:08:53.983Z,9.10
2018-11-10T04:11:22.795Z,9.10
2018-11-10T04:13:51.478Z,9.00
2018-11-10T04:16:20.212Z,8.90
2018-11-10T04:18:48.908Z,9.00
2018-11-10T04:21:17.653Z,9.00
2018-11-10T04:23:46.307Z,8.90
2018-11-10T04:26:15.018Z,8.80
2018-11-10T04:28:43.721Z,8.70
2018-11-10T04:31:12.368Z,8.70
2018-11-10T04:33:41.060Z,8.40
2018-11-10T04:36:09.795Z,8.50
2018-11-10T04:38:38.526Z,8.50
2018-11-10T04:41:07.477Z,8.50
2018-11-10T04:43:36.139Z,8.40
2018-11-10T04:46:04.794Z,8.10
2018-11-10T04:48:40.823Z,8.30
2018-11-10T04:51:09.579Z,8.30
2018-11-10T04:53:38.219Z,8.50
2018-11-10T04:56:06.946Z,8.60
2018-11-10T04:58:35.649Z,8.50
2018-11-10T05:01:04.495Z,8.30
2018-11-10T05:03:33.163Z,8.20
2018-11-10T05:06:01.873Z,8.30
2018-11-10T05:08:30.544Z,8.20
2018-11-10T05:10:59.217Z,8.30
2018-11-10T05:13:27.963Z,8.30
2018-11-10T05:15:56.678Z,8.30
2018-11-10T05:18:25.351Z,8.30
2018-11-10T05:20:54.081Z,8.40
2018-11-10T05:23:22.839Z,8.40
2018-11-10T05:25:51.489Z,8.40
2018-11-10T05:28:20.198Z,8.40
2018-11-10T05:30:48.832Z,8.40
2018-11-10T05:33:23.968Z,8.40
2018-11-10T05:35:52.700Z,8.40
2018-11-10T05:38:21.396Z,8.40
2018-11-10T05:40:50.037Z,8.40
2018-11-10T05:43:18.756Z,8.40
2018-11-10T05:45:47.381Z,8.30
2018-11-10T05:48:16.075Z,8.30
2018-11-10T05:50:44.789Z,8.20
2018-11-10T05:53:13.471Z,8.00
2018-11-10T05:55:42.183Z,8.00
2018-11-10T05:58:10.921Z,7.90
2018-11-10T06:00:39.597Z,8.10
2018-11-10T06:03:08.409Z,8.10
2018-11-10T06:05:37.059Z,8.10
2018-11-10T06:08:06.093Z,8.30
2018-11-10T06:10:34.779Z,8.20
2018-11-10T06:13:03.653Z,8.20
2018-11-10T06:15:32.329Z,7.80
2018-11-10T06:18:01.170Z,7.90
2018-11-10T06:20:29.811Z,8.00
2018-11-10T06:22:58.511Z,8.00
2018-11-10T06:25:27.228Z,8.10
2018-11-10T06:27:55.900Z,8.20
2018-11-10T06:30:27.586Z,8.10
2018-11-10T06:32:56.260Z,8.10
2018-11-10T06:35:24.974Z,8.10
2018-11-10T06:37:53.936Z,8.10
2018-11-10T06:40:22.690Z,8.00
2018-11-10T06:42:51.317Z,8.10
2018-11-10T06:45:20.260Z,8.00
2018-11-10T06:47:48.908Z,7.90
2018-11-10T06:50:17.570Z,7.90
2018-11-10T06:52:46.242Z,8.00
2018-11-10T06:55:14.968Z,7.90
2018-11-10T06:57:43.641Z,7.90
2018-11-10T07:00:14.125Z,8.00
2018-11-10T07:02:43.225Z,8.00
2018-11-10T07:05:12.739Z,7.90
2018-11-10T07:07:41.526Z,8.00
2018-11-10T07:10:10.577Z,7.90
2018-11-10T07:12:39.305Z,8.10
2018-11-10T07:15:08.619Z,8.00
2018-11-10T07:17:37.378Z,7.90
2018-11-10T07:20:06.421Z,7.70
2018-11-10T07:22:35.116Z,7.70
2018-11-10T07:25:03.920Z,7.70
2018-11-10T07:27:32.584Z,7.80
2018-11-10T07:30:01.257Z,8.00
2018-11-10T07:32:29.969Z,7.90
2018-11-10T07:34:58.629Z,7.90
2018-11-10T07:37:27.396Z,8.00
2018-11-10T07:39:56.042Z,8.00
2018-11-10T07:42:24.798Z,8.10
2018-11-10T07:44:53.501Z,7.90
2018-11-10T07:47:22.245Z,8.10
2018-11-10T07:49:50.889Z,8.00
2018-11-10T07:52:19.564Z,7.90
2018-11-10T07:54:48.196Z,8.20
2018-11-10T07:57:17.153Z,8.30
2018-11-10T07:59:45.821Z,8.30
2018-11-10T08:02:14.557Z,8.30
2018-11-10T08:04:43.272Z,8.50
2018-11-10T08:07:11.946Z,8.70
2018-11-10T08:09:40.898Z,8.70
2018-11-10T08:12:09.570Z,8.80
2018-11-10T08:14:38.196Z,8.80
2018-11-10T08:17:07.249Z,8.90
2018-11-10T08:19:35.939Z,8.90
2018-11-10T08:22:04.695Z,8.90
2018-11-10T08:24:33.436Z,8.90
2018-11-10T08:27:02.276Z,8.80
2018-11-10T08:29:31.021Z,8.80
2018-11-10T08:31:59.756Z,8.90
2018-11-10T08:34:28.439Z,8.80
2018-11-10T08:36:57.124Z,8.90
2018-11-10T08:39:25.857Z,9.10
2018-11-10T08:41:54.563Z,9.20
2018-11-10T08:44:23.232Z,9.30
2018-11-10T08:46:51.932Z,9.60
2018-11-10T08:49:20.698Z,9.70
2018-11-10T08:51:49.425Z,9.90
2018-11-10T08:54:18.096Z,10.10
2018-11-10T08:56:46.966Z,10.10
2018-11-10T08:59:15.706Z,9.90
2018-11-10T09:01:44.329Z,9.90
2018-11-10T09:04:13.061Z,9.90
2018-11-10T09:06:41.735Z,9.70
2018-11-10T09:09:11.092Z,9.50
2018-11-10T09:11:39.735Z,9.50
2018-11-10T09:14:14.682Z,9.40
2018-11-10T09:16:43.349Z,9.50
2018-11-10T09:19:12.036Z,9.70
2018-11-10T09:21:40.690Z,10.00
2018-11-10T09:24:09.411Z,10.20
2018-11-10T09:26:38.135Z,10.20
2018-11-10T09:29:07.249Z,10.30
2018-11-10T09:31:35.948Z,10.40
2018-11-10T09:34:04.773Z,10.60
2018-11-10T09:36:33.713Z,10.70
2018-11-10T09:39:02.504Z,11.00
2018-11-10T09:41:31.314Z,11.60
2018-11-10T09:43:59.976Z,12.00
2018-11-10T09:46:29.019Z,12.20
2018-11-10T09:48:57.746Z,12.20
2018-11-10T09:51:26.571Z,12.40
2018-11-10T09:53:55.354Z,13.00
2018-11-10T09:56:24.085Z,13.60
2018-11-10T09:58:52.768Z,14.20
2018-11-10T10:01:21.661Z,15.00
2018-11-10T10:03:50.559Z,15.40
2018-11-10T10:06:19.419Z,15.70
2018-11-10T10:08:49.454Z,16.10
2018-11-10T10:11:18.227Z,16.20
2018-11-10T10:13:46.969Z,16.00
2018-11-10T10:16:15.725Z,15.50
2018-11-10T10:18:44.403Z,15.60
2018-11-10T10:21:13.101Z,15.10
2018-11-10T10:23:41.861Z,14.70
2018-11-10T10:26:10.697Z,14.80
2018-11-10T10:28:39.549Z,14.90
2018-11-10T10:31:08.141Z,15.00
2018-11-10T10:33:36.829Z,15.40
2018-11-10T10:36:05.781Z,15.10
2018-11-10T10:38:34.432Z,15.30
2018-11-10T10:41:03.142Z,15.40
2018-11-10T10:43:31.910Z,15.90
2018-11-10T10:46:00.812Z,15.90
2018-11-10T10:48:29.716Z,15.70
2018-11-10T10:50:58.564Z,15.60
2018-11-10T10:53:27.574Z,15.80
2018-11-10T10:55:56.457Z,16.00
2018-11-10T10:58:25.192Z,15.80
2018-11-10T11:00:59.116Z,15.60
2018-11-10T11:03:33.035Z,15.60
2018-11-10T11:06:02.860Z,15.40
2018-11-10T11:08:31.936Z,14.80
2018-11-10T11:11:00.693Z,14.30
2018-11-10T11:13:29.369Z,14.20
2018-11-10T11:15:58.161Z,13.90
2018-11-10T11:18:26.945Z,13.80
2018-11-10T11:20:55.797Z,13.60
2018-11-10T11:23:25.602Z,13.50
2018-11-10T11:25:54.434Z,13.30
2018-11-10T11:28:23.204Z,13.30
2018-11-10T11:30:52.288Z,13.30
2018-11-10T11:33:20.978Z,13.20
2018-11-10T11:35:49.645Z,13.30
2018-11-10T11:38:18.340Z,13.40
2018-11-10T11:40:47.229Z,13.40
2018-11-10T11:43:15.907Z,13.30
2018-11-10T11:45:44.695Z,13.10
2018-11-10T11:48:13.601Z,13.10
2018-11-10T11:50:42.369Z,13.20
2018-11-10T11:53:11.152Z,13.20
2018-11-10T11:55:39.874Z,13.20
2018-11-10T11:58:08.781Z,13.30
2018-11-10T12:00:37.455Z,13.20
2018-11-10T12:03:06.326Z,13.10
2018-11-10T12:05:35.183Z,13.20
2018-11-10T12:08:03.881Z,13.30
2018-11-10T12:10:32.574Z,13.40
2018-11-10T12:13:01.373Z,13.40
2018-11-10T12:15:30.451Z,13.30
2018-11-10T12:17:59.141Z,13.40
2018-11-10T12:20:28.046Z,13.50
2018-11-10T12:22:57.149Z,13.50
2018-11-10T12:25:26.016Z,13.50
2018-11-10T12:27:55.089Z,13.40
2018-11-10T12:30:23.849Z,13.50
2018-11-10T12:32:52.549Z,13.50
2018-11-10T12:35:21.450Z,13.50
2018-11-10T12:37:50.171Z,13.50
2018-11-10T12:40:19.964Z,13.50
2018-11-10T12:42:48.781Z,13.50
2018-11-10T12:45:17.961Z,13.20
2018-11-10T12:47:47.164Z,13.30
2018-11-10T12:50:16.439Z,13.40
2018-11-10T12:52:46.010Z,13.40
2018-11-10T12:55:15.936Z,13.30
2018-11-10T12:57:45.695Z,13.40
2018-11-10T13:00:15.877Z,13.40
2018-11-10T13:02:45.040Z,13.40
2018-11-10T13:05:13.916Z,13.40
2018-11-10T13:07:44.424Z,13.20
2018-11-10T13:10:13.407Z,13.30
2018-11-10T13:12:42.934Z,13.20
2018-11-10T13:15:11.926Z,13.30
2018-11-10T13:17:40.961Z,13.40
2018-11-10T13:20:12.037Z,13.40
2018-11-10T13:22:40.929Z,13.30
2018-11-10T13:25:10.940Z,13.30
2018-11-10T13:27:39.947Z,13.40
2018-11-10T13:30:10.258Z,13.40
2018-11-10T13:32:39.265Z,13.40
2018-11-10T13:35:09.170Z,13.30
2018-11-10T13:37:37.920Z,13.30
2018-11-10T13:40:07.605Z,13.30
2018-11-10T13:42:36.592Z,13.30
2018-11-10T13:45:06.649Z,13.20
2018-11-10T13:47:35.365Z,13.20
2018-11-10T13:50:04.418Z,13.20
2018-11-10T13:52:33.547Z,13.30
2018-11-10T13:55:02.134Z,13.20
2018-11-10T13:57:30.896Z,13.30
2018-11-10T13:59:59.879Z,13.30
2018-11-10T14:02:28.668Z,13.30
2018-11-10T14:04:57.380Z,13.20
2018-11-10T14:07:26.146Z,13.20
2018-11-10T14:09:54.839Z,13.20
2018-11-10T14:12:23.633Z,13.10
2018-11-10T14:14:52.305Z,13.10
2018-11-10T14:17:21.174Z,13.10
2018-11-10T14:19:49.941Z,13.10
2018-11-10T14:22:18.733Z,13.10
2018-11-10T14:24:47.446Z,13.10
2018-11-10T14:27:16.215Z,13.10
2018-11-10T14:29:44.944Z,13.10
2018-11-10T14:32:13.780Z,13.10
2018-11-10T14:34:42.569Z,13.10
2018-11-10T14:37:11.432Z,13.10
2018-11-10T14:39:40.104Z,13.00
2018-11-10T14:42:08.906Z,13.10
2018-11-10T14:44:37.681Z,13.10
2018-11-10T14:47:06.475Z,13.10
2018-11-10T14:49:35.143Z,13.10
2018-11-10T14:52:04.052Z,13.00
2018-11-10T14:54:33.012Z,12.90
2018-11-10T14:57:01.908Z,12.80
2018-11-10T14:59:30.608Z,12.70
2018-11-10T15:01:59.378Z,12.70
2018-11-10T15:04:28.060Z,12.50
2018-11-10T15:06:56.821Z,12.50
2018-11-10T15:09:25.553Z,12.50
2018-11-10T15:11:54.462Z,12.40
2018-11-10T15:14:23.216Z,12.40
2018-11-10T15:16:52.088Z,12.40
2018-11-10T15:19:20.766Z,12.30
2018-11-10T15:21:49.471Z,12.10
2018-11-10T15:24:18.088Z,12.10
2018-11-10T15:26:46.754Z,12.00
2018-11-10T15:29:15.446Z,12.00
2018-11-10T15:31:44.045Z,11.90
2018-11-10T15:34:12.780Z,11.90
2018-11-10T15:36:41.642Z,11.80
2018-11-10T15:39:10.380Z,11.80
2018-11-10T15:41:39.036Z,11.80
2018-11-10T15:44:07.901Z,11.80
2018-11-10T15:46:36.534Z,11.70
2018-11-10T15:49:05.336Z,11.70
2018-11-10T15:51:33.950Z,11.60
2018-11-10T15:54:02.966Z,11.60
2018-11-10T15:56:31.775Z,11.50
2018-11-10T15:59:00.558Z,11.40
2018-11-10T16:01:29.945Z,11.40
2018-11-10T16:03:58.658Z,11.20
2018-11-10T16:06:27.328Z,11.20
2018-11-10T16:08:56.500Z,11.10
2018-11-10T16:11:25.429Z,11.10
2018-11-10T16:13:54.214Z,11.00
2018-11-10T16:16:22.962Z,11.00
2018-11-10T16:18:51.756Z,11.00
2018-11-10T16:21:22.387Z,11.00
2018-11-10T16:23:51.133Z,10.90
2018-11-10T16:26:19.823Z,10.90
2018-11-10T16:28:48.560Z,10.80
2018-11-10T16:31:17.301Z,10.80
2018-11-10T16:33:45.964Z,10.80
2018-11-10T16:36:14.749Z,10.70
2018-11-10T16:38:43.456Z,10.70
2018-11-10T16:41:12.266Z,10.60
2018-11-10T16:43:41.024Z,10.50
2018-11-10T16:46:09.911Z,10.40
2018-11-10T16:48:38.919Z,10.30
2018-11-10T16:51:07.881Z,10.20
2018-11-10T16:53:36.617Z,10.20
2018-11-10T16:56:05.470Z,10.20
2018-11-10T16:58:34.598Z,10.10
2018-11-10T17:01:03.325Z,10.00
2018-11-10T17:03:31.988Z,10.00
2018-11-10T17:06:00.746Z,10.00
2018-11-10T17:08:29.522Z,9.90
2018-11-10T17:10:58.157Z,9.90
2018-11-10T17:13:26.918Z,10.00
2018-11-10T17:15:55.518Z,9.80
2018-11-10T17:18:24.268Z,9.80
2018-11-10T17:20:53.167Z,9.80
2018-11-10T17:23:21.981Z,9.90
2018-11-10T17:25:50.620Z,9.80
2018-11-10T17:28:19.430Z,9.70
2018-11-10T17:30:48.080Z,9.70
2018-11-10T17:33:17.019Z,9.50
2018-11-10T17:35:45.646Z,9.40
2018-11-10T17:38:14.319Z,9.50
2018-11-10T17:40:42.972Z,9.30
2018-11-10T17:43:11.648Z,9.10
2018-11-10T17:45:40.281Z,9.20
2018-11-10T17:48:09.079Z,9.30
2018-11-10T17:50:37.762Z,9.40
2018-11-10T17:53:06.687Z,9.20
2018-11-10T17:55:35.360Z,9.20
2018-11-10T17:58:04.040Z,9.20
2018-11-10T18:00:32.709Z,9.40
2018-11-10T18:03:01.393Z,9.40
2018-11-10T18:05:30.060Z,9.50
2018-11-10T18:07:58.751Z,9.50
2018-11-10T18:10:27.645Z,9.40
2018-11-10T18:12:56.400Z,9.20
2018-11-10T18:15:26.137Z,9.00
2018-11-10T18:17:54.798Z,9.10
2018-11-10T18:20:23.496Z,9.00
2018-11-10T18:22:52.176Z,9.20
2018-11-10T18:25:21.229Z,9.20
2018-11-10T18:27:50.026Z,9.20
2018-11-10T18:30:18.668Z,8.90
2018-11-10T18:32:47.657Z,8.90
2018-11-10T18:35:16.388Z,9.00
2018-11-10T18:37:45.049Z,9.10
2018-11-10T18:40:13.733Z,9.10
2018-11-10T18:42:42.432Z,9.00
2018-11-10T18:45:12.069Z,9.10
2018-11-10T18:47:41.159Z,9.20
2018-11-10T18:50:11.991Z,9.20
2018-11-10T18:52:40.755Z,9.30
2018-11-10T18:55:09.427Z,9.30
2018-11-10T18:57:38.434Z,9.40
2018-11-10T19:00:09.409Z,9.40
2018-11-10T19:02:38.330Z,9.30
2018-11-10T19:05:08.406Z,9.40
2018-11-10T19:07:37.403Z,9.60
2018-11-10T19:10:07.582Z,9.30
2018-11-10T19:12:36.445Z,9.50
2018-11-10T19:15:05.927Z,9.60
2018-11-10T19:17:34.593Z,9.70
2018-11-10T19:20:03.435Z,9.70
2018-11-10T19:22:32.190Z,9.60
2018-11-10T19:25:01.151Z,9.60
2018-11-10T19:27:29.937Z,9.40
2018-11-10T19:29:58.643Z,9.50
2018-11-10T19:32:27.449Z,9.50
2018-11-10T19:34:56.070Z,9.40
2018-11-10T19:37:24.861Z,9.50
2018-11-10T19:39:53.541Z,9.40
2018-11-10T19:42:22.302Z,9.50
2018-11-10T19:44:50.981Z,9.00
2018-11-10T19:47:19.694Z,9.00
2018-11-10T19:49:48.738Z,9.00
2018-11-10T19:52:19.075Z,8.80
2018-11-10T19:54:47.734Z,8.70
2018-11-10T19:57:16.501Z,8.70
2018-11-10T19:59:45.161Z,8.80
2018-11-10T20:02:13.881Z,8.90
2018-11-10T20:04:42.548Z,9.00
2018-11-10T20:07:11.251Z,8.90
2018-11-10T20:09:39.910Z,9.10
2018-11-10T20:12:08.619Z,9.00
2018-11-10T20:14:37.316Z,8.90
2018-11-10T20:17:06.114Z,9.00
2018-11-10T20:19:34.819Z,9.10
2018-11-10T20:22:03.583Z,8.90
2018-11-10T20:24:32.273Z,9.00
2018-11-10T20:27:01.389Z,9.10
2018-11-10T20:29:30.058Z,9.10
2018-11-10T20:31:58.773Z,9.20
2018-11-10T20:34:27.413Z,9.10
2018-11-10T20:36:56.102Z,9.20
2018-11-10T20:39:24.855Z,9.30
2018-11-10T20:41:53.578Z,9.20
2018-11-10T20:44:22.273Z,9.20
2018-11-10T20:46:51.106Z,9.30
2018-11-10T20:49:19.767Z,9.40
2018-11-10T20:51:48.741Z,9.30
2018-11-10T20:54:17.425Z,9.40
2018-11-10T20:56:46.119Z,9.30
2018-11-10T20:59:14.784Z,9.30
2018-11-10T21:01:43.504Z,9.40
2018-11-10T21:04:12.153Z,9.30
2018-11-10T21:06:41.082Z,9.10
2018-11-10T21:09:11.828Z,8.90
2018-11-10T21:11:40.582Z,8.90
2018-11-10T21:14:10.106Z,9.00
2018-11-10T21:22:41.926Z,9.10
2018-11-10T21:28:13.519Z,8.90
2018-11-10T21:30:42.270Z,8.80
2018-11-10T21:33:10.998Z,9.00
2018-11-10T21:35:40.869Z,9.00
2018-11-10T21:38:09.545Z,9.10
2018-11-10T21:40:38.248Z,9.20
2018-11-10T21:43:07.057Z,9.10
2018-11-10T21:45:35.867Z,9.20
2018-11-10T21:48:04.755Z,9.30
2018-11-10T21:50:33.608Z,9.30
2018-11-10T21:53:02.353Z,9.20
2018-11-10T21:55:31.362Z,9.30
2018-11-10T21:58:00.147Z,9.30
2018-11-10T22:00:28.820Z,9.20
2018-11-10T22:02:57.614Z,9.20
2018-11-10T22:05:26.354Z,9.20
2018-11-10T22:07:55.082Z,9.10
2018-11-10T22:10:24.056Z,9.10
2018-11-10T22:12:52.803Z,9.10
2018-11-10T22:15:22.678Z,9.20
2018-11-10T22:17:51.651Z,9.30
2018-11-10T22:20:21.737Z,9.30
2018-11-10T22:22:50.605Z,9.40
2018-11-10T22:25:19.462Z,9.40
2018-11-10T22:27:49.602Z,9.40
2018-11-10T22:30:19.445Z,9.40
2018-11-10T22:32:48.722Z,9.40
2018-11-10T22:35:17.494Z,9.10
2018-11-10T22:37:46.178Z,9.10
2018-11-10T22:40:16.996Z,9.20
2018-11-10T22:42:46.037Z,9.10
2018-11-10T22:45:16.046Z,9.10
2018-11-10T22:47:44.797Z,9.10
2018-11-10T22:50:15.352Z,9.10
2018-11-10T22:52:44.686Z,9.10
2018-11-10T22:55:13.495Z,9.10
2018-11-10T22:57:42.329Z,9.00
2018-11-10T23:00:15.666Z,9.00
2018-11-10T23:02:46.933Z,9.10
2018-11-10T23:05:16.008Z,9.20
2018-11-10T23:07:44.753Z,9.30
2018-11-10T23:10:14.232Z,9.20
2018-11-10T23:12:43.565Z,9.20
2018-11-10T23:15:12.544Z,9.10
2018-11-10T23:17:41.381Z,8.90
2018-11-10T23:20:17.540Z,9.00
2018-11-10T23:22:46.321Z,9.00
2018-11-10T23:25:16.306Z,8.90
2018-11-10T23:27:45.083Z,8.90
2018-11-10T23:30:21.171Z,8.80
2018-11-10T23:32:49.958Z,8.80
2018-11-10T23:35:18.864Z,8.80
2018-11-10T23:37:47.602Z,8.90
2018-11-10T23:40:16.993Z,8.90
2018-11-10T23:42:45.777Z,9.00
2018-11-10T23:45:15.054Z,8.80
2018-11-10T23:47:43.713Z,8.90
2018-11-10T23:50:13.656Z,8.80
2018-11-10T23:52:42.391Z,8.90
2018-11-10T23:55:12.082Z,8.80
2018-11-10T23:57:40.868Z,8.70
